sensor_id;sensor_type;location;lat;lon;timestamp;P1;durP1;ratioP1;P2;durP2;ratioP2
75851;SDS011;64500;52.632;20.656;2023-05-07T00:00:22;8.20;;;3.50;;
75851;SDS011;64500;52.632;20.656;2023-05-07T00:03:10;14.30;;;4.20;;
75851;SDS011;64500;52.632;20.656;2023-05-07T00:05:37;8.10;;;3.30;;
75851;SDS011;64500;52.632;20.656;2023-05-07T00:08:05;10.20;;;3.80;;
75851;SDS011;64500;52.632;20.656;2023-05-07T00:10:32;8.80;;;3.60;;
75851;SDS011;64500;52.632;20.656;2023-05-07T00:12:59;9.40;;;4.00;;
75851;SDS011;64500;52.632;20.656;2023-05-07T00:15:26;10.20;;;3.90;;
75851;SDS011;64500;52.632;20.656;2023-05-07T00:17:53;9.60;;;3.80;;
75851;SDS011;64500;52.632;20.656;2023-05-07T00:20:20;9.20;;;3.60;;
75851;SDS011;64500;52.632;20.656;2023-05-07T00:22:46;8.00;;;3.40;;
75851;SDS011;64500;52.632;20.656;2023-05-07T00:25:13;7.60;;;3.90;;
75851;SDS011;64500;52.632;20.656;2023-05-07T00:27:40;8.00;;;3.80;;
75851;SDS011;64500;52.632;20.656;2023-05-07T00:30:08;10.30;;;3.90;;
75851;SDS011;64500;52.632;20.656;2023-05-07T00:32:36;8.10;;;3.30;;
75851;SDS011;64500;52.632;20.656;2023-05-07T00:35:04;8.80;;;4.00;;
75851;SDS011;64500;52.632;20.656;2023-05-07T00:37:31;8.70;;;3.90;;
75851;SDS011;64500;52.632;20.656;2023-05-07T00:39:58;9.80;;;3.60;;
75851;SDS011;64500;52.632;20.656;2023-05-07T00:42:25;7.90;;;3.50;;
75851;SDS011;64500;52.632;20.656;2023-05-07T00:44:52;8.30;;;3.80;;
75851;SDS011;64500;52.632;20.656;2023-05-07T00:47:19;8.40;;;3.50;;
75851;SDS011;64500;52.632;20.656;2023-05-07T00:49:46;9.50;;;3.60;;
75851;SDS011;64500;52.632;20.656;2023-05-07T00:52:15;8.90;;;3.60;;
75851;SDS011;64500;52.632;20.656;2023-05-07T00:54:43;7.30;;;3.40;;
75851;SDS011;64500;52.632;20.656;2023-05-07T00:57:10;9.00;;;3.60;;
75851;SDS011;64500;52.632;20.656;2023-05-07T00:59:37;7.10;;;3.30;;
75851;SDS011;64500;52.632;20.656;2023-05-07T01:02:05;8.80;;;3.30;;
75851;SDS011;64500;52.632;20.656;2023-05-07T01:04:32;8.90;;;3.20;;
75851;SDS011;64500;52.632;20.656;2023-05-07T01:06:58;8.30;;;3.40;;
75851;SDS011;64500;52.632;20.656;2023-05-07T01:09:26;7.60;;;3.30;;
75851;SDS011;64500;52.632;20.656;2023-05-07T01:11:53;7.80;;;3.40;;
75851;SDS011;64500;52.632;20.656;2023-05-07T01:14:20;9.70;;;3.60;;
75851;SDS011;64500;52.632;20.656;2023-05-07T01:16:47;8.20;;;3.40;;
75851;SDS011;64500;52.632;20.656;2023-05-07T01:19:14;9.00;;;3.10;;
75851;SDS011;64500;52.632;20.656;2023-05-07T01:21:47;9.30;;;3.20;;
75851;SDS011;64500;52.632;20.656;2023-05-07T01:24:14;7.40;;;3.10;;
75851;SDS011;64500;52.632;20.656;2023-05-07T01:26:42;8.60;;;3.50;;
75851;SDS011;64500;52.632;20.656;2023-05-07T01:29:10;8.20;;;3.30;;
75851;SDS011;64500;52.632;20.656;2023-05-07T01:31:37;8.50;;;3.60;;
75851;SDS011;64500;52.632;20.656;2023-05-07T01:34:05;8.40;;;3.10;;
75851;SDS011;64500;52.632;20.656;2023-05-07T01:36:34;8.20;;;3.40;;
75851;SDS011;64500;52.632;20.656;2023-05-07T01:39:03;9.40;;;3.30;;
75851;SDS011;64500;52.632;20.656;2023-05-07T01:41:31;7.10;;;3.30;;
75851;SDS011;64500;52.632;20.656;2023-05-07T01:43:57;8.50;;;3.30;;
75851;SDS011;64500;52.632;20.656;2023-05-07T01:46:24;8.10;;;3.50;;
75851;SDS011;64500;52.632;20.656;2023-05-07T01:48:52;7.70;;;3.10;;
75851;SDS011;64500;52.632;20.656;2023-05-07T01:51:19;9.60;;;3.80;;
75851;SDS011;64500;52.632;20.656;2023-05-07T01:53:48;7.10;;;3.20;;
75851;SDS011;64500;52.632;20.656;2023-05-07T01:56:17;7.60;;;3.30;;
75851;SDS011;64500;52.632;20.656;2023-05-07T01:58:45;7.30;;;3.30;;
75851;SDS011;64500;52.632;20.656;2023-05-07T02:01:13;10.80;;;3.50;;
75851;SDS011;64500;52.632;20.656;2023-05-07T02:03:40;9.20;;;3.10;;
75851;SDS011;64500;52.632;20.656;2023-05-07T02:06:07;7.80;;;3.20;;
75851;SDS011;64500;52.632;20.656;2023-05-07T02:08:33;7.70;;;3.10;;
75851;SDS011;64500;52.632;20.656;2023-05-07T02:11:00;6.90;;;3.10;;
75851;SDS011;64500;52.632;20.656;2023-05-07T02:13:28;7.10;;;3.10;;
75851;SDS011;64500;52.632;20.656;2023-05-07T02:15:56;10.40;;;3.20;;
75851;SDS011;64500;52.632;20.656;2023-05-07T02:18:22;6.20;;;2.50;;
75851;SDS011;64500;52.632;20.656;2023-05-07T02:20:49;8.10;;;2.90;;
75851;SDS011;64500;52.632;20.656;2023-05-07T02:23:16;9.20;;;2.80;;
75851;SDS011;64500;52.632;20.656;2023-05-07T02:25:43;6.30;;;2.90;;
75851;SDS011;64500;52.632;20.656;2023-05-07T02:28:09;8.30;;;2.70;;
75851;SDS011;64500;52.632;20.656;2023-05-07T02:30:36;8.70;;;2.90;;
75851;SDS011;64500;52.632;20.656;2023-05-07T02:33:04;7.10;;;2.90;;
75851;SDS011;64500;52.632;20.656;2023-05-07T02:35:31;7.50;;;3.10;;
75851;SDS011;64500;52.632;20.656;2023-05-07T02:37:57;7.40;;;2.90;;
75851;SDS011;64500;52.632;20.656;2023-05-07T02:40:24;8.40;;;2.80;;
75851;SDS011;64500;52.632;20.656;2023-05-07T02:42:51;7.80;;;2.70;;
75851;SDS011;64500;52.632;20.656;2023-05-07T02:45:18;10.00;;;3.30;;
75851;SDS011;64500;52.632;20.656;2023-05-07T02:47:44;7.90;;;3.10;;
75851;SDS011;64500;52.632;20.656;2023-05-07T02:50:12;7.60;;;3.10;;
75851;SDS011;64500;52.632;20.656;2023-05-07T02:52:38;8.00;;;2.60;;
75851;SDS011;64500;52.632;20.656;2023-05-07T02:55:05;8.30;;;2.70;;
75851;SDS011;64500;52.632;20.656;2023-05-07T02:57:32;6.40;;;2.60;;
75851;SDS011;64500;52.632;20.656;2023-05-07T02:59:59;7.60;;;2.90;;
75851;SDS011;64500;52.632;20.656;2023-05-07T03:02:26;6.80;;;2.90;;
75851;SDS011;64500;52.632;20.656;2023-05-07T03:04:54;7.30;;;2.80;;
75851;SDS011;64500;52.632;20.656;2023-05-07T03:07:20;6.40;;;2.70;;
75851;SDS011;64500;52.632;20.656;2023-05-07T03:09:47;7.40;;;3.10;;
75851;SDS011;64500;52.632;20.656;2023-05-07T03:12:14;10.00;;;2.90;;
75851;SDS011;64500;52.632;20.656;2023-05-07T03:14:41;8.20;;;2.80;;
75851;SDS011;64500;52.632;20.656;2023-05-07T03:17:08;6.00;;;2.50;;
75851;SDS011;64500;52.632;20.656;2023-05-07T03:19:34;8.50;;;3.00;;
75851;SDS011;64500;52.632;20.656;2023-05-07T03:22:01;6.40;;;2.80;;
75851;SDS011;64500;52.632;20.656;2023-05-07T03:24:28;7.30;;;2.60;;
75851;SDS011;64500;52.632;20.656;2023-05-07T03:26:55;8.70;;;2.90;;
75851;SDS011;64500;52.632;20.656;2023-05-07T03:29:21;7.00;;;2.80;;
75851;SDS011;64500;52.632;20.656;2023-05-07T03:31:49;6.80;;;2.90;;
75851;SDS011;64500;52.632;20.656;2023-05-07T03:34:16;6.40;;;2.60;;
75851;SDS011;64500;52.632;20.656;2023-05-07T03:36:48;6.50;;;2.60;;
75851;SDS011;64500;52.632;20.656;2023-05-07T03:39:15;7.50;;;2.80;;
75851;SDS011;64500;52.632;20.656;2023-05-07T03:41:42;9.20;;;2.70;;
75851;SDS011;64500;52.632;20.656;2023-05-07T03:44:09;8.50;;;2.70;;
75851;SDS011;64500;52.632;20.656;2023-05-07T03:46:35;6.80;;;2.40;;
75851;SDS011;64500;52.632;20.656;2023-05-07T03:49:02;6.80;;;2.30;;
75851;SDS011;64500;52.632;20.656;2023-05-07T03:51:29;6.70;;;2.40;;
75851;SDS011;64500;52.632;20.656;2023-05-07T03:53:56;7.80;;;2.50;;
75851;SDS011;64500;52.632;20.656;2023-05-07T03:56:23;7.10;;;2.30;;
75851;SDS011;64500;52.632;20.656;2023-05-07T03:58:53;8.10;;;2.60;;
75851;SDS011;64500;52.632;20.656;2023-05-07T04:01:20;6.10;;;2.40;;
75851;SDS011;64500;52.632;20.656;2023-05-07T04:03:46;6.80;;;2.20;;
75851;SDS011;64500;52.632;20.656;2023-05-07T04:06:15;5.30;;;2.10;;
75851;SDS011;64500;52.632;20.656;2023-05-07T04:08:42;8.80;;;3.30;;
75851;SDS011;64500;52.632;20.656;2023-05-07T04:11:11;7.40;;;2.60;;
75851;SDS011;64500;52.632;20.656;2023-05-07T04:13:38;6.20;;;2.50;;
75851;SDS011;64500;52.632;20.656;2023-05-07T04:16:05;5.90;;;2.30;;
75851;SDS011;64500;52.632;20.656;2023-05-07T04:18:31;6.40;;;2.30;;
75851;SDS011;64500;52.632;20.656;2023-05-07T04:21:00;5.60;;;2.10;;
75851;SDS011;64500;52.632;20.656;2023-05-07T04:23:27;5.50;;;2.10;;
75851;SDS011;64500;52.632;20.656;2023-05-07T04:25:54;5.50;;;2.30;;
75851;SDS011;64500;52.632;20.656;2023-05-07T04:28:21;4.90;;;2.10;;
75851;SDS011;64500;52.632;20.656;2023-05-07T04:30:48;4.70;;;1.90;;
75851;SDS011;64500;52.632;20.656;2023-05-07T04:33:15;8.40;;;2.00;;
75851;SDS011;64500;52.632;20.656;2023-05-07T04:35:44;5.80;;;1.70;;
75851;SDS011;64500;52.632;20.656;2023-05-07T04:38:12;6.70;;;1.70;;
75851;SDS011;64500;52.632;20.656;2023-05-07T04:40:39;4.90;;;1.70;;
75851;SDS011;64500;52.632;20.656;2023-05-07T04:43:06;4.60;;;1.60;;
75851;SDS011;64500;52.632;20.656;2023-05-07T04:45:34;6.20;;;1.70;;
75851;SDS011;64500;52.632;20.656;2023-05-07T04:48:01;4.50;;;1.50;;
75851;SDS011;64500;52.632;20.656;2023-05-07T04:50:28;5.10;;;1.80;;
75851;SDS011;64500;52.632;20.656;2023-05-07T04:52:55;7.90;;;1.80;;
75851;SDS011;64500;52.632;20.656;2023-05-07T04:55:21;4.80;;;1.60;;
75851;SDS011;64500;52.632;20.656;2023-05-07T04:57:51;5.20;;;1.60;;
75851;SDS011;64500;52.632;20.656;2023-05-07T05:00:21;5.60;;;1.70;;
75851;SDS011;64500;52.632;20.656;2023-05-07T05:02:48;4.10;;;1.30;;
75851;SDS011;64500;52.632;20.656;2023-05-07T05:05:14;3.40;;;1.50;;
75851;SDS011;64500;52.632;20.656;2023-05-07T05:07:41;5.00;;;1.80;;
75851;SDS011;64500;52.632;20.656;2023-05-07T05:10:08;4.50;;;1.60;;
75851;SDS011;64500;52.632;20.656;2023-05-07T05:12:35;6.00;;;1.60;;
75851;SDS011;64500;52.632;20.656;2023-05-07T05:15:02;4.10;;;1.60;;
75851;SDS011;64500;52.632;20.656;2023-05-07T05:17:29;5.10;;;1.60;;
75851;SDS011;64500;52.632;20.656;2023-05-07T05:19:56;4.40;;;1.40;;
75851;SDS011;64500;52.632;20.656;2023-05-07T05:22:22;5.00;;;1.70;;
75851;SDS011;64500;52.632;20.656;2023-05-07T05:24:49;4.20;;;1.50;;
75851;SDS011;64500;52.632;20.656;2023-05-07T05:27:16;4.70;;;1.50;;
75851;SDS011;64500;52.632;20.656;2023-05-07T05:29:43;3.50;;;1.50;;
75851;SDS011;64500;52.632;20.656;2023-05-07T05:32:09;4.40;;;1.50;;
75851;SDS011;64500;52.632;20.656;2023-05-07T05:34:36;3.00;;;1.30;;
75851;SDS011;64500;52.632;20.656;2023-05-07T05:37:03;4.20;;;1.50;;
75851;SDS011;64500;52.632;20.656;2023-05-07T05:39:30;3.20;;;1.30;;
75851;SDS011;64500;52.632;20.656;2023-05-07T05:41:59;6.10;;;1.60;;
75851;SDS011;64500;52.632;20.656;2023-05-07T05:44:26;3.80;;;1.50;;
75851;SDS011;64500;52.632;20.656;2023-05-07T05:46:53;5.20;;;1.70;;
75851;SDS011;64500;52.632;20.656;2023-05-07T05:49:25;4.90;;;1.50;;
75851;SDS011;64500;52.632;20.656;2023-05-07T05:51:52;3.80;;;1.30;;
75851;SDS011;64500;52.632;20.656;2023-05-07T05:54:18;4.30;;;1.60;;
75851;SDS011;64500;52.632;20.656;2023-05-07T05:56:46;4.40;;;1.60;;
75851;SDS011;64500;52.632;20.656;2023-05-07T05:59:12;4.10;;;1.30;;
75851;SDS011;64500;52.632;20.656;2023-05-07T06:01:39;3.70;;;1.50;;
75851;SDS011;64500;52.632;20.656;2023-05-07T06:04:06;5.40;;;1.80;;
75851;SDS011;64500;52.632;20.656;2023-05-07T06:06:33;3.60;;;1.30;;
75851;SDS011;64500;52.632;20.656;2023-05-07T06:09:00;3.80;;;1.50;;
75851;SDS011;64500;52.632;20.656;2023-05-07T06:11:27;5.00;;;1.60;;
75851;SDS011;64500;52.632;20.656;2023-05-07T06:13:54;6.10;;;1.80;;
75851;SDS011;64500;52.632;20.656;2023-05-07T06:16:20;7.60;;;3.50;;
75851;SDS011;64500;52.632;20.656;2023-05-07T06:18:47;6.70;;;2.60;;
75851;SDS011;64500;52.632;20.656;2023-05-07T06:21:14;5.80;;;2.00;;
75851;SDS011;64500;52.632;20.656;2023-05-07T06:23:41;3.70;;;1.60;;
75851;SDS011;64500;52.632;20.656;2023-05-07T06:26:08;3.20;;;1.20;;
75851;SDS011;64500;52.632;20.656;2023-05-07T06:28:35;5.30;;;1.80;;
75851;SDS011;64500;52.632;20.656;2023-05-07T06:31:12;3.80;;;1.30;;
75851;SDS011;64500;52.632;20.656;2023-05-07T06:33:39;5.20;;;1.70;;
75851;SDS011;64500;52.632;20.656;2023-05-07T06:36:06;6.80;;;1.80;;
75851;SDS011;64500;52.632;20.656;2023-05-07T06:38:33;4.30;;;1.60;;
75851;SDS011;64500;52.632;20.656;2023-05-07T06:41:00;3.80;;;1.50;;
75851;SDS011;64500;52.632;20.656;2023-05-07T06:43:27;3.40;;;1.40;;
75851;SDS011;64500;52.632;20.656;2023-05-07T06:45:54;6.00;;;1.70;;
75851;SDS011;64500;52.632;20.656;2023-05-07T06:48:21;4.40;;;1.70;;
75851;SDS011;64500;52.632;20.656;2023-05-07T06:50:47;7.70;;;2.10;;
75851;SDS011;64500;52.632;20.656;2023-05-07T06:53:14;4.80;;;1.70;;
75851;SDS011;64500;52.632;20.656;2023-05-07T06:55:41;4.90;;;1.40;;
75851;SDS011;64500;52.632;20.656;2023-05-07T06:58:08;5.50;;;1.70;;
75851;SDS011;64500;52.632;20.656;2023-05-07T07:00:34;4.30;;;1.40;;
75851;SDS011;64500;52.632;20.656;2023-05-07T07:03:01;4.60;;;1.60;;
75851;SDS011;64500;52.632;20.656;2023-05-07T07:05:28;5.80;;;1.50;;
75851;SDS011;64500;52.632;20.656;2023-05-07T07:07:55;5.20;;;1.70;;
75851;SDS011;64500;52.632;20.656;2023-05-07T07:10:21;4.80;;;1.60;;
75851;SDS011;64500;52.632;20.656;2023-05-07T07:12:48;6.60;;;1.70;;
75851;SDS011;64500;52.632;20.656;2023-05-07T07:15:15;6.90;;;1.80;;
75851;SDS011;64500;52.632;20.656;2023-05-07T07:17:42;2.90;;;1.40;;
75851;SDS011;64500;52.632;20.656;2023-05-07T07:20:09;6.30;;;1.60;;
75851;SDS011;64500;52.632;20.656;2023-05-07T07:22:37;5.00;;;1.70;;
75851;SDS011;64500;52.632;20.656;2023-05-07T07:25:04;5.40;;;2.00;;
75851;SDS011;64500;52.632;20.656;2023-05-07T07:27:31;5.50;;;1.60;;
75851;SDS011;64500;52.632;20.656;2023-05-07T07:29:58;7.30;;;2.40;;
75851;SDS011;64500;52.632;20.656;2023-05-07T07:32:25;3.90;;;1.70;;
75851;SDS011;64500;52.632;20.656;2023-05-07T07:34:54;5.90;;;1.80;;
75851;SDS011;64500;52.632;20.656;2023-05-07T07:37:21;7.70;;;2.20;;
75851;SDS011;64500;52.632;20.656;2023-05-07T07:39:48;5.80;;;1.60;;
75851;SDS011;64500;52.632;20.656;2023-05-07T07:42:15;7.20;;;2.30;;
75851;SDS011;64500;52.632;20.656;2023-05-07T07:44:41;7.50;;;1.70;;
75851;SDS011;64500;52.632;20.656;2023-05-07T07:47:08;6.50;;;1.60;;
75851;SDS011;64500;52.632;20.656;2023-05-07T07:49:35;5.30;;;1.80;;
75851;SDS011;64500;52.632;20.656;2023-05-07T07:52:02;4.10;;;1.60;;
75851;SDS011;64500;52.632;20.656;2023-05-07T07:54:29;5.00;;;1.60;;
75851;SDS011;64500;52.632;20.656;2023-05-07T07:56:56;5.60;;;1.80;;
75851;SDS011;64500;52.632;20.656;2023-05-07T07:59:23;4.30;;;1.60;;
75851;SDS011;64500;52.632;20.656;2023-05-07T08:01:50;3.50;;;1.40;;
75851;SDS011;64500;52.632;20.656;2023-05-07T08:04:21;4.80;;;1.50;;
75851;SDS011;64500;52.632;20.656;2023-05-07T08:06:48;7.50;;;1.70;;
75851;SDS011;64500;52.632;20.656;2023-05-07T08:09:15;4.10;;;1.30;;
75851;SDS011;64500;52.632;20.656;2023-05-07T08:11:41;9.10;;;1.60;;
75851;SDS011;64500;52.632;20.656;2023-05-07T08:14:08;6.20;;;1.50;;
75851;SDS011;64500;52.632;20.656;2023-05-07T08:16:35;5.50;;;1.80;;
75851;SDS011;64500;52.632;20.656;2023-05-07T08:19:02;5.00;;;1.90;;
75851;SDS011;64500;52.632;20.656;2023-05-07T08:21:28;4.40;;;1.70;;
75851;SDS011;64500;52.632;20.656;2023-05-07T08:23:57;5.00;;;1.70;;
75851;SDS011;64500;52.632;20.656;2023-05-07T08:26:24;5.50;;;1.60;;
75851;SDS011;64500;52.632;20.656;2023-05-07T08:28:50;6.00;;;1.60;;
75851;SDS011;64500;52.632;20.656;2023-05-07T08:31:17;5.60;;;1.80;;
75851;SDS011;64500;52.632;20.656;2023-05-07T08:33:44;6.40;;;2.10;;
75851;SDS011;64500;52.632;20.656;2023-05-07T08:36:11;3.90;;;1.60;;
75851;SDS011;64500;52.632;20.656;2023-05-07T08:38:37;5.60;;;1.70;;
75851;SDS011;64500;52.632;20.656;2023-05-07T08:41:08;6.30;;;1.80;;
75851;SDS011;64500;52.632;20.656;2023-05-07T08:43:36;5.60;;;1.80;;
75851;SDS011;64500;52.632;20.656;2023-05-07T08:46:04;8.20;;;2.60;;
75851;SDS011;64500;52.632;20.656;2023-05-07T08:48:31;5.50;;;1.70;;
75851;SDS011;64500;52.632;20.656;2023-05-07T08:50:59;6.10;;;2.40;;
75851;SDS011;64500;52.632;20.656;2023-05-07T08:53:26;4.80;;;1.70;;
75851;SDS011;64500;52.632;20.656;2023-05-07T08:55:53;4.90;;;1.50;;
75851;SDS011;64500;52.632;20.656;2023-05-07T08:58:20;7.80;;;2.10;;
75851;SDS011;64500;52.632;20.656;2023-05-07T09:00:47;7.90;;;1.70;;
75851;SDS011;64500;52.632;20.656;2023-05-07T09:03:13;6.40;;;1.60;;
75851;SDS011;64500;52.632;20.656;2023-05-07T09:05:40;8.70;;;2.60;;
75851;SDS011;64500;52.632;20.656;2023-05-07T09:08:09;4.90;;;1.70;;
75851;SDS011;64500;52.632;20.656;2023-05-07T09:10:36;5.30;;;2.00;;
75851;SDS011;64500;52.632;20.656;2023-05-07T09:13:03;6.70;;;1.80;;
75851;SDS011;64500;52.632;20.656;2023-05-07T09:15:30;5.40;;;1.60;;
75851;SDS011;64500;52.632;20.656;2023-05-07T09:18:00;6.90;;;1.80;;
75851;SDS011;64500;52.632;20.656;2023-05-07T09:20:30;5.00;;;1.70;;
75851;SDS011;64500;52.632;20.656;2023-05-07T09:22:58;6.20;;;1.90;;
75851;SDS011;64500;52.632;20.656;2023-05-07T09:25:31;5.10;;;1.50;;
75851;SDS011;64500;52.632;20.656;2023-05-07T09:27:59;8.40;;;1.80;;
75851;SDS011;64500;52.632;20.656;2023-05-07T09:30:27;5.10;;;1.50;;
75851;SDS011;64500;52.632;20.656;2023-05-07T09:32:54;8.50;;;2.00;;
75851;SDS011;64500;52.632;20.656;2023-05-07T09:35:21;6.70;;;2.00;;
75851;SDS011;64500;52.632;20.656;2023-05-07T09:37:50;4.90;;;1.70;;
75851;SDS011;64500;52.632;20.656;2023-05-07T09:40:24;6.30;;;1.80;;
75851;SDS011;64500;52.632;20.656;2023-05-07T09:42:51;5.20;;;1.50;;
75851;SDS011;64500;52.632;20.656;2023-05-07T09:45:25;4.00;;;1.60;;
75851;SDS011;64500;52.632;20.656;2023-05-07T09:47:56;5.30;;;1.80;;
75851;SDS011;64500;52.632;20.656;2023-05-07T09:50:26;5.80;;;1.80;;
75851;SDS011;64500;52.632;20.656;2023-05-07T09:52:54;6.10;;;1.80;;
75851;SDS011;64500;52.632;20.656;2023-05-07T09:55:22;4.20;;;1.70;;
75851;SDS011;64500;52.632;20.656;2023-05-07T09:57:50;7.80;;;1.90;;
75851;SDS011;64500;52.632;20.656;2023-05-07T10:00:17;5.10;;;1.60;;
75851;SDS011;64500;52.632;20.656;2023-05-07T10:02:46;5.60;;;1.70;;
75851;SDS011;64500;52.632;20.656;2023-05-07T10:05:15;5.60;;;1.90;;
75851;SDS011;64500;52.632;20.656;2023-05-07T10:07:43;6.30;;;1.50;;
75851;SDS011;64500;52.632;20.656;2023-05-07T10:10:10;6.30;;;1.90;;
75851;SDS011;64500;52.632;20.656;2023-05-07T10:12:37;8.70;;;2.10;;
75851;SDS011;64500;52.632;20.656;2023-05-07T10:15:06;6.20;;;1.70;;
75851;SDS011;64500;52.632;20.656;2023-05-07T10:17:39;4.30;;;1.60;;
75851;SDS011;64500;52.632;20.656;2023-05-07T10:20:06;5.80;;;1.70;;
75851;SDS011;64500;52.632;20.656;2023-05-07T10:22:44;6.40;;;2.00;;
75851;SDS011;64500;52.632;20.656;2023-05-07T10:25:23;5.60;;;1.70;;
75851;SDS011;64500;52.632;20.656;2023-05-07T10:27:51;4.70;;;1.90;;
75851;SDS011;64500;52.632;20.656;2023-05-07T10:31:05;6.50;;;1.60;;
75851;SDS011;64500;52.632;20.656;2023-05-07T10:33:11;4.00;;;1.50;;
75851;SDS011;64500;52.632;20.656;2023-05-07T10:35:40;4.00;;;1.50;;
75851;SDS011;64500;52.632;20.656;2023-05-07T10:38:08;7.40;;;1.70;;
75851;SDS011;64500;52.632;20.656;2023-05-07T10:40:35;5.50;;;1.50;;
75851;SDS011;64500;52.632;20.656;2023-05-07T10:43:02;3.90;;;1.60;;
75851;SDS011;64500;52.632;20.656;2023-05-07T10:45:31;7.50;;;1.70;;
75851;SDS011;64500;52.632;20.656;2023-05-07T10:50:37;5.10;;;1.60;;
75851;SDS011;64500;52.632;20.656;2023-05-07T10:53:25;5.80;;;1.60;;
75851;SDS011;64500;52.632;20.656;2023-05-07T10:58:39;7.40;;;2.10;;
75851;SDS011;64500;52.632;20.656;2023-05-07T11:01:06;5.90;;;2.20;;
75851;SDS011;64500;52.632;20.656;2023-05-07T11:03:33;7.70;;;2.40;;
75851;SDS011;64500;52.632;20.656;2023-05-07T11:06:10;6.50;;;2.50;;
75851;SDS011;64500;52.632;20.656;2023-05-07T11:11:19;5.70;;;2.00;;
75851;SDS011;64500;52.632;20.656;2023-05-07T11:13:47;5.10;;;1.80;;
75851;SDS011;64500;52.632;20.656;2023-05-07T11:18:48;7.60;;;2.30;;
75851;SDS011;64500;52.632;20.656;2023-05-07T11:23:59;5.50;;;1.70;;
75851;SDS011;64500;52.632;20.656;2023-05-07T11:26:26;11.50;;;4.00;;
75851;SDS011;64500;52.632;20.656;2023-05-07T11:28:53;7.80;;;2.80;;
75851;SDS011;64500;52.632;20.656;2023-05-07T11:31:21;7.70;;;2.20;;
75851;SDS011;64500;52.632;20.656;2023-05-07T11:33:49;7.90;;;2.40;;
75851;SDS011;64500;52.632;20.656;2023-05-07T11:36:17;5.00;;;1.80;;
75851;SDS011;64500;52.632;20.656;2023-05-07T11:38:44;5.60;;;1.80;;
75851;SDS011;64500;52.632;20.656;2023-05-07T11:41:11;5.80;;;1.90;;
75851;SDS011;64500;52.632;20.656;2023-05-07T11:43:40;7.50;;;2.30;;
75851;SDS011;64500;52.632;20.656;2023-05-07T11:46:20;6.70;;;2.60;;
75851;SDS011;64500;52.632;20.656;2023-05-07T11:48:47;6.90;;;1.90;;
75851;SDS011;64500;52.632;20.656;2023-05-07T11:51:14;6.10;;;2.00;;
75851;SDS011;64500;52.632;20.656;2023-05-07T11:53:45;4.50;;;1.80;;
75851;SDS011;64500;52.632;20.656;2023-05-07T11:56:12;6.50;;;2.00;;
75851;SDS011;64500;52.632;20.656;2023-05-07T11:58:40;4.50;;;1.80;;
75851;SDS011;64500;52.632;20.656;2023-05-07T12:01:08;7.00;;;2.00;;
75851;SDS011;64500;52.632;20.656;2023-05-07T12:03:36;5.40;;;1.90;;
75851;SDS011;64500;52.632;20.656;2023-05-07T12:06:06;4.70;;;1.90;;
75851;SDS011;64500;52.632;20.656;2023-05-07T12:08:35;4.70;;;1.70;;
75851;SDS011;64500;52.632;20.656;2023-05-07T12:11:03;5.80;;;1.80;;
75851;SDS011;64500;52.632;20.656;2023-05-07T12:13:30;6.70;;;1.80;;
75851;SDS011;64500;52.632;20.656;2023-05-07T12:15:57;6.10;;;1.90;;
75851;SDS011;64500;52.632;20.656;2023-05-07T12:18:24;5.80;;;1.70;;
75851;SDS011;64500;52.632;20.656;2023-05-07T12:20:51;5.40;;;1.80;;
75851;SDS011;64500;52.632;20.656;2023-05-07T12:23:18;10.50;;;2.40;;
75851;SDS011;64500;52.632;20.656;2023-05-07T12:25:45;7.30;;;2.20;;
75851;SDS011;64500;52.632;20.656;2023-05-07T12:28:16;7.00;;;2.00;;
75851;SDS011;64500;52.632;20.656;2023-05-07T12:30:43;4.60;;;1.60;;
75851;SDS011;64500;52.632;20.656;2023-05-07T12:33:11;5.60;;;1.60;;
75851;SDS011;64500;52.632;20.656;2023-05-07T12:35:39;5.00;;;1.60;;
75851;SDS011;64500;52.632;20.656;2023-05-07T12:38:10;5.00;;;1.90;;
75851;SDS011;64500;52.632;20.656;2023-05-07T12:40:41;5.80;;;1.80;;
75851;SDS011;64500;52.632;20.656;2023-05-07T12:43:23;6.70;;;1.90;;
75851;SDS011;64500;52.632;20.656;2023-05-07T12:45:51;5.70;;;1.70;;
75851;SDS011;64500;52.632;20.656;2023-05-07T12:48:19;6.00;;;1.80;;
75851;SDS011;64500;52.632;20.656;2023-05-07T12:50:49;4.00;;;1.50;;
75851;SDS011;64500;52.632;20.656;2023-05-07T12:53:16;5.10;;;1.50;;
75851;SDS011;64500;52.632;20.656;2023-05-07T12:55:44;6.50;;;2.00;;
75851;SDS011;64500;52.632;20.656;2023-05-07T12:58:18;7.80;;;1.80;;
75851;SDS011;64500;52.632;20.656;2023-05-07T13:00:48;6.30;;;1.80;;
75851;SDS011;64500;52.632;20.656;2023-05-07T13:03:22;5.20;;;1.70;;
75851;SDS011;64500;52.632;20.656;2023-05-07T13:05:50;5.30;;;1.70;;
75851;SDS011;64500;52.632;20.656;2023-05-07T13:08:33;5.20;;;1.80;;
75851;SDS011;64500;52.632;20.656;2023-05-07T13:11:01;5.90;;;2.20;;
75851;SDS011;64500;52.632;20.656;2023-05-07T13:13:31;7.90;;;1.70;;
75851;SDS011;64500;52.632;20.656;2023-05-07T13:15:58;8.40;;;2.00;;
75851;SDS011;64500;52.632;20.656;2023-05-07T13:18:25;4.90;;;1.70;;
75851;SDS011;64500;52.632;20.656;2023-05-07T13:20:53;5.80;;;1.80;;
75851;SDS011;64500;52.632;20.656;2023-05-07T13:23:20;4.50;;;1.50;;
75851;SDS011;64500;52.632;20.656;2023-05-07T13:25:47;4.10;;;1.70;;
75851;SDS011;64500;52.632;20.656;2023-05-07T13:28:14;3.80;;;1.50;;
75851;SDS011;64500;52.632;20.656;2023-05-07T13:30:41;4.70;;;1.60;;
75851;SDS011;64500;52.632;20.656;2023-05-07T13:33:08;4.90;;;1.80;;
75851;SDS011;64500;52.632;20.656;2023-05-07T13:35:35;6.50;;;2.40;;
75851;SDS011;64500;52.632;20.656;2023-05-07T13:38:02;5.40;;;1.90;;
75851;SDS011;64500;52.632;20.656;2023-05-07T13:40:29;5.30;;;1.70;;
75851;SDS011;64500;52.632;20.656;2023-05-07T13:42:58;5.40;;;1.80;;
75851;SDS011;64500;52.632;20.656;2023-05-07T13:45:26;5.30;;;1.50;;
75851;SDS011;64500;52.632;20.656;2023-05-07T13:47:53;5.50;;;1.70;;
75851;SDS011;64500;52.632;20.656;2023-05-07T13:50:20;5.50;;;1.80;;
75851;SDS011;64500;52.632;20.656;2023-05-07T13:52:47;4.40;;;1.70;;
75851;SDS011;64500;52.632;20.656;2023-05-07T13:55:20;5.90;;;1.90;;
75851;SDS011;64500;52.632;20.656;2023-05-07T13:57:54;4.50;;;1.60;;
75851;SDS011;64500;52.632;20.656;2023-05-07T14:00:21;7.20;;;2.20;;
75851;SDS011;64500;52.632;20.656;2023-05-07T14:02:48;6.10;;;1.90;;
75851;SDS011;64500;52.632;20.656;2023-05-07T14:05:15;4.70;;;1.50;;
75851;SDS011;64500;52.632;20.656;2023-05-07T14:07:41;5.60;;;1.90;;
75851;SDS011;64500;52.632;20.656;2023-05-07T14:10:08;6.60;;;1.80;;
75851;SDS011;64500;52.632;20.656;2023-05-07T14:12:36;6.40;;;1.70;;
75851;SDS011;64500;52.632;20.656;2023-05-07T14:15:03;4.40;;;1.70;;
75851;SDS011;64500;52.632;20.656;2023-05-07T14:17:30;6.30;;;1.80;;
75851;SDS011;64500;52.632;20.656;2023-05-07T14:19:56;5.80;;;1.90;;
75851;SDS011;64500;52.632;20.656;2023-05-07T14:22:23;5.90;;;2.10;;
75851;SDS011;64500;52.632;20.656;2023-05-07T14:24:50;6.10;;;2.10;;
75851;SDS011;64500;52.632;20.656;2023-05-07T14:27:19;4.30;;;1.50;;
75851;SDS011;64500;52.632;20.656;2023-05-07T14:29:46;7.60;;;1.60;;
75851;SDS011;64500;52.632;20.656;2023-05-07T14:32:17;5.40;;;1.70;;
75851;SDS011;64500;52.632;20.656;2023-05-07T14:34:44;5.00;;;2.00;;
75851;SDS011;64500;52.632;20.656;2023-05-07T14:37:11;5.30;;;1.90;;
75851;SDS011;64500;52.632;20.656;2023-05-07T14:39:39;6.90;;;1.90;;
75851;SDS011;64500;52.632;20.656;2023-05-07T14:42:06;7.80;;;2.10;;
75851;SDS011;64500;52.632;20.656;2023-05-07T14:44:34;5.30;;;2.00;;
75851;SDS011;64500;52.632;20.656;2023-05-07T14:47:01;5.40;;;2.00;;
75851;SDS011;64500;52.632;20.656;2023-05-07T14:49:28;6.30;;;1.90;;